Impacts TAF Board INFO
FOR SITUATIONAL AWARENESS. NOT TO BE USED FOR FLIGHT PLANNING PURPOSES.
IDs:

KLGA - New York/La Guardia, NY, US

Issued at 1829 UTC 23 Jan 2018
Updated at 1932 UTC 23 Jan 2018
Potential Impact None Slight Moderate High
Time1851Z 23/20Z 23/21Z 23/22Z 23/23Z 24/00Z 24/01Z 24/02Z 24/03Z 24/04Z 24/05Z 24/06Z 24/07Z 24/08Z>>
Type OBS PRVL PRVL PRVL PRVL PRVL PRVL PRVL PRVL PRVL PRVL PRVL PRVL PRVL
VIS 10 >6 >6 >6 >6 >6 >6 >6 >6 >6 >6 >6 >6 >6
CIG 250 -- -- -- -- -- -- -- -- -- -- -- -- --
Cover BKN SCT SCT SCT SCT SCT SCT SCT SCT SCT SCT SCT SCT SCT
FltCat VFR VFR VFR VFR VFR VFR VFR VFR VFR VFR VFR VFR VFR VFR
WX -- -- -- -- -- -- -- -- -- -- -- -- -- --
WDir VRB 260 260 260 260 260 260 260 260 260 260 260 260 260
WSpd 0 12 12 12 12 14 14 14 14 14 14 14 14 14
WGst -- -- -- -- -- 24 24 24 24 24 24 24 24 24

Raw TAF
KLGA 231829Z 2318/2424 28012KT P6SM SCT007 BKN035 WS020/21045KT
  FM232000 26012KT P6SM SCT015 SCT035
  FM240000 26014G24KT P6SM SCT040
  FM241400 29017G27KT P6SM SCT040
  FM242100 30015KT P6SM SCT040


Raw METAR
KLGA 231851Z 00000KT 10SM FEW040 SCT110 BKN250 14/11 A2952 RMK AO2 RAE10B14E26 SLP995 P0003 T01440111
KLGA 231811Z 30005KT 10SM SCT006 BKN038 BKN065 BKN250 13/11 A2953 RMK AO2 RAE10 P0002 T01330111
KLGA 231751Z 23010KT 190V280 5SM R04/4000VP6000FT -RA BR BKN005 BKN011 OVC250 12/11 A2955 RMK AO2 RAE15B48 SLP005 P0001 60017 T01220111 10128 20039 56051
KLGA 231710Z 17017G22KT 10SM -RA BKN005 OVC015 12/11 A2954 RMK AO2 P0000 T01170106
KLGA 231651Z 17014G22KT 10SM -RA BKN006 BKN017 OVC060 12/11 A2956 RMK AO2 RAE1553B28 PRESFR SLP009 P0002 T01170106

METAR Board
Radar Display
Forecast Discussion

FOR SITUATIONAL AWARENESS. NOT TO BE USED FOR FLIGHT PLANNING PURPOSES.